Liverpool Express — DDSD2 — position and weather

sailwx.info

Track history (hours):
 
Tides and Currents Weather Stations Pressure Air Temp Water Temp Dewpoint Dewpoint Depression Visibility Wind Speed Wind Dir Waves Ship Positions

Liverpool Express

Last reported at 2014-Sep-21 03:33 UTC. Time now 2014-Sep-21 04:08 UTC.
Position N 53°32' E 009°55'.

Length 281 m; draft 10.8 m.

Type: Cargo ship. MMSI: 218025000.

Date/timePositionNaut miles runAvg speedWind from/ knotsBaromVisibWave heightAir tempDewpointWater temp
2014-Sep-21 03:33N 53°32' E 009°55'0 0.0
2014-Sep-21 02:33N 53°32' E 009°55'0 0.0
2014-Sep-21 01:33N 53°32' E 009°55'0 0.0
2014-Sep-21 00:33N 53°32' E 009°55'0 0.0
2014-Sep-20 23:33N 53°32' E 009°55'0 0.0
2014-Sep-20 22:33N 53°32' E 009°55'0 0.0
2014-Sep-20 21:33N 53°32' E 009°55'0 0.0
2014-Sep-20 20:32N 53°32' E 009°55'0 0.0
2014-Sep-20 19:31N 53°32' E 009°55'0 0.0
2014-Sep-20 18:32N 53°32' E 009°55'0 0.0
2014-Sep-20 17:33N 53°32' E 009°55'0 0.0
2014-Sep-20 16:34N 53°32' E 009°55'0 0.0
2014-Sep-20 15:31N 53°32' E 009°55'0 0.0
2014-Sep-20 14:31N 53°32' E 009°55'0 0.0
2014-Sep-20 13:32N 53°32' E 009°55'0 0.0
2014-Sep-20 12:32N 53°32' E 009°55'0 0.0
2014-Sep-20 11:32N 53°32' E 009°55'0 0.0
2014-Sep-20 10:32N 53°32' E 009°55'0 0.0
2014-Sep-20 09:33N 53°32' E 009°55'0 0.0
2014-Sep-20 08:32N 53°32' E 009°55'0 0.0
2014-Sep-20 07:29N 53°32' E 009°55'0 0.0
2014-Sep-20 06:32N 53°32' E 009°55'0 0.0
2014-Sep-20 05:33N 53°32' E 009°55'0 0.0
2014-Sep-20 04:32N 53°32' E 009°55'0 0.0
2014-Sep-20 03:32N 53°32' E 009°55'0 0.0
2014-Sep-20 02:32N 53°32' E 009°55'0 0.0
2014-Sep-20 01:32N 53°32' E 009°55'0 0.0
2014-Sep-20 00:32N 53°32' E 009°55'0 0.0
2014-Sep-19 23:32N 53°32' E 009°55'0 0.0
2014-Sep-19 22:32N 53°32' E 009°55'0 0.0
2014-Sep-19 21:32N 53°32' E 009°55'0 0.0
2014-Sep-19 20:32N 53°32' E 009°55'0 0.0
2014-Sep-19 19:33N 53°32' E 009°55'0 0.0
2014-Sep-19 18:33N 53°32' E 009°55'0 0.0
2014-Sep-19 17:33N 53°32' E 009°55'0 0.0
2014-Sep-19 16:33N 53°32' E 009°55'0 0.0
2014-Sep-19 15:33N 53°32' E 009°55'0 0.0
2014-Sep-19 14:33N 53°32' E 009°55'0 0.0
2014-Sep-19 13:33N 53°32' E 009°55'3 2.9
2014-Sep-19 12:33N 53°33' E 009°50'7 7.0
2014-Sep-19 11:33N 53°34' E 009°38'9 9.4
2014-Sep-19 10:33N 53°42' E 009°29'1211.8
2014-Sep-19 09:33N 53°52' E 009°18'8 8.2
2014-Sep-19 08:33N 53°52' E 009°03'1212.2
2014-Sep-19 07:33N 53°52' E 008°43'1514.5
2014-Sep-19 06:34N 53°59' E 008°21'1313.1
2014-Sep-19 05:33N 53°58' E 007°59'1111.3
2014-Sep-19 04:33N 53°56' E 007°40'1413.7
2014-Sep-19 03:30N 53°52' E 007°17'1616.6
2014-Sep-19 02:33N 53°49' E 006°51'1616.4
2014-Sep-19 01:33N 53°46' E 006°23'1616.0
2014-Sep-19 00:33N 53°41' E 005°58'1616.2
2014-Sep-18 23:33N 53°36' E 005°32'1616.4
2014-Sep-18 22:34N 53°31' E 005°06'1515.4
2014-Sep-18 21:33N 53°23' E 004°43'1515.2
2014-Sep-18 20:33N 53°09' E 004°31'1615.6
2014-Sep-18 19:33N 52°56' E 004°18'1615.8
2014-Sep-18 18:33N 52°42' E 004°05'1615.7
2014-Sep-18 17:33N 52°28' E 003°54'1615.8
2014-Sep-18 16:33N 52°12' E 003°53'1110.9
2014-Sep-18 15:33N 52°02' E 003°57'1313.3
2014-Sep-18 14:34N 51°55' E 004°15'6 5.3
2014-Sep-18 13:30N 51°53' E 004°24'0 0.0
2014-Sep-18 12:33N 51°53' E 004°24'0 0.0
2014-Sep-18 11:31N 51°53' E 004°24'0 0.0
2014-Sep-18 10:31N 51°53' E 004°24'0 0.0
2014-Sep-18 09:31N 51°53' E 004°24'0 0.0
2014-Sep-18 08:31N 51°53' E 004°24'0 0.0
2014-Sep-18 07:31N 51°53' E 004°24'0 0.0
2014-Sep-18 06:32N 51°53' E 004°24'0 0.0
2014-Sep-18 05:33N 51°53' E 004°24'0 0.0
2014-Sep-18 04:33N 51°53' E 004°24'0 0.0
2014-Sep-18 03:33N 51°53' E 004°24'0 0.0
2014-Sep-18 02:33N 51°53' E 004°24'0 0.0
2014-Sep-18 01:33N 51°53' E 004°24'0 0.0
2014-Sep-18 00:31N 51°53' E 004°24'0 0.0
2014-Sep-17 23:34N 51°53' E 004°24'0 0.0
2014-Sep-17 22:34N 51°53' E 004°24'0 0.0
2014-Sep-17 21:34N 51°53' E 004°24'0 0.0
2014-Sep-17 20:31N 51°53' E 004°24'0 0.0
2014-Sep-17 19:34N 51°53' E 004°24'0 0.0
2014-Sep-17 18:31N 51°53' E 004°24'0 0.0
2014-Sep-17 17:31N 51°53' E 004°24'0 0.0
2014-Sep-17 16:31N 51°53' E 004°24'0 0.0
2014-Sep-17 15:31N 51°53' E 004°24'0 0.0
2014-Sep-17 14:31N 51°53' E 004°24'0 0.0
2014-Sep-17 13:31N 51°53' E 004°24'1 0.6
2014-Sep-17 12:33N 51°53' E 004°24'6 6.0
2014-Sep-17 11:33N 51°55' E 004°15'1211.7
2014-Sep-17 10:34N 52°00' E 003°58'1211.5
2014-Sep-17 09:33N 51°58' E 003°39'10 9.8
2014-Sep-17 08:33N 51°55' E 003°24'1515.3
2014-Sep-17 07:33N 51°51' E 003°00'1818.1
2014-Sep-17 06:32N 51°43' E 002°33'1818.5
2014-Sep-17 05:32N 51°29' E 002°14'1717.6
2014-Sep-17 04:34N 51°17' E 001°55'1817.8
2014-Sep-17 03:34N 51°03' E 001°37'1717.3
2014-Sep-17 02:33N 50°47' E 001°26'1717.0
2014-Sep-17 01:33N 50°35' E 001°07'1817.8
2014-Sep-17 00:34N 50°28' E 000°41'2618.7
2014-Sep-16 23:10N 50°21' E 000°02'1118.2
2014-Sep-16 22:34N 50°18' W 000°15'1817.9
2014-Sep-16 21:34N 50°13' W 000°42'1717.3
2014-Sep-16 20:33N 50°09' W 001°08'1716.8
2014-Sep-16 19:33N 50°05' W 001°33'1616.2
2014-Sep-16 18:33N 49°60' W 001°57'1616.2
2014-Sep-16 17:34N 49°55' W 002°22'54018.3
2014-Sep-15 12:00N 47°54' W 015°42'45619.0 090 / 171009.510.8 1.519.617.518.9
2014-Sep-14 12:00N 45°18' W 026°06'11018.4 360 / 111005.910.8 0.5 17.5
2014-Sep-14 06:00N 44°36' W 028°30'17219.3 320 / 121008.210.8 1.017.216.618.2
2014-Sep-13 21:06N 43°20' W 032°04'1018.9
2014-Sep-13 20:33N 43°15' W 032°17'16018.7
2014-Sep-13 12:00N 41°54' W 035°24'21818.2 180 / 61018.510.8 0.522.515.521.5
2014-Sep-13 00:00N 40°00' W 039°30'69219.2 180 / 161020.210.8 2.023.019.823.1
2014-Sep-11 12:00N 33°12' W 051°06'12020.0 130 / 31022.010.8 0.528.023.226.3
2014-Sep-11 06:00N 31°54' W 052°54'   090 / 71020.910.8 30.022.427.9
Track history (hours):
 
Tides and Currents Weather Stations Pressure Air Temp Water Temp Dewpoint Dewpoint Depression Visibility Wind Speed Wind Dir Waves Ship Positions

Liverpool Express

Last reported at 2014-Sep-21 03:33 UTC. Time now 2014-Sep-21 04:08 UTC.
Position N 53°32' E 009°55'.

Length 281 m; draft 10.8 m.

Type: Cargo ship. MMSI: 218025000.

Date/timePositionNaut miles runAvg speedWind from/ knotsBaromVisibWave heightAir tempDewpointWater temp
2014-Sep-21 03:33N 53°32' E 009°55'0 0.0
2014-Sep-21 02:33N 53°32' E 009°55'0 0.0
2014-Sep-21 01:33N 53°32' E 009°55'0 0.0
2014-Sep-21 00:33N 53°32' E 009°55'0 0.0
2014-Sep-20 23:33N 53°32' E 009°55'0 0.0
2014-Sep-20 22:33N 53°32' E 009°55'0 0.0
2014-Sep-20 21:33N 53°32' E 009°55'0 0.0
2014-Sep-20 20:32N 53°32' E 009°55'0 0.0
2014-Sep-20 19:31N 53°32' E 009°55'0 0.0
2014-Sep-20 18:32N 53°32' E 009°55'0 0.0
2014-Sep-20 17:33N 53°32' E 009°55'0 0.0
2014-Sep-20 16:34N 53°32' E 009°55'0 0.0
2014-Sep-20 15:31N 53°32' E 009°55'0 0.0
2014-Sep-20 14:31N 53°32' E 009°55'0 0.0
2014-Sep-20 13:32N 53°32' E 009°55'0 0.0
2014-Sep-20 12:32N 53°32' E 009°55'0 0.0
2014-Sep-20 11:32N 53°32' E 009°55'0 0.0
2014-Sep-20 10:32N 53°32' E 009°55'0 0.0
2014-Sep-20 09:33N 53°32' E 009°55'0 0.0
2014-Sep-20 08:32N 53°32' E 009°55'0 0.0
2014-Sep-20 07:29N 53°32' E 009°55'0 0.0
2014-Sep-20 06:32N 53°32' E 009°55'0 0.0
2014-Sep-20 05:33N 53°32' E 009°55'0 0.0
2014-Sep-20 04:32N 53°32' E 009°55'0 0.0
2014-Sep-20 03:32N 53°32' E 009°55'0 0.0
2014-Sep-20 02:32N 53°32' E 009°55'0 0.0
2014-Sep-20 01:32N 53°32' E 009°55'0 0.0
2014-Sep-20 00:32N 53°32' E 009°55'0 0.0
2014-Sep-19 23:32N 53°32' E 009°55'0 0.0
2014-Sep-19 22:32N 53°32' E 009°55'0 0.0
2014-Sep-19 21:32N 53°32' E 009°55'0 0.0
2014-Sep-19 20:32N 53°32' E 009°55'0 0.0
2014-Sep-19 19:33N 53°32' E 009°55'0 0.0
2014-Sep-19 18:33N 53°32' E 009°55'0 0.0
2014-Sep-19 17:33N 53°32' E 009°55'0 0.0
2014-Sep-19 16:33N 53°32' E 009°55'0 0.0
2014-Sep-19 15:33N 53°32' E 009°55'0 0.0
2014-Sep-19 14:33N 53°32' E 009°55'0 0.0
2014-Sep-19 13:33N 53°32' E 009°55'3 2.9
2014-Sep-19 12:33N 53°33' E 009°50'7 7.0
2014-Sep-19 11:33N 53°34' E 009°38'9 9.4
2014-Sep-19 10:33N 53°42' E 009°29'1211.8
2014-Sep-19 09:33N 53°52' E 009°18'8 8.2
2014-Sep-19 08:33N 53°52' E 009°03'1212.2
2014-Sep-19 07:33N 53°52' E 008°43'1514.5
2014-Sep-19 06:34N 53°59' E 008°21'1313.1
2014-Sep-19 05:33N 53°58' E 007°59'1111.3
2014-Sep-19 04:33N 53°56' E 007°40'1413.7
2014-Sep-19 03:30N 53°52' E 007°17'1616.6
2014-Sep-19 02:33N 53°49' E 006°51'1616.4
2014-Sep-19 01:33N 53°46' E 006°23'1616.0
2014-Sep-19 00:33N 53°41' E 005°58'1616.2
2014-Sep-18 23:33N 53°36' E 005°32'1616.4
2014-Sep-18 22:34N 53°31' E 005°06'1515.4
2014-Sep-18 21:33N 53°23' E 004°43'1515.2
2014-Sep-18 20:33N 53°09' E 004°31'1615.6
2014-Sep-18 19:33N 52°56' E 004°18'1615.8
2014-Sep-18 18:33N 52°42' E 004°05'1615.7
2014-Sep-18 17:33N 52°28' E 003°54'1615.8
2014-Sep-18 16:33N 52°12' E 003°53'1110.9
2014-Sep-18 15:33N 52°02' E 003°57'1313.3
2014-Sep-18 14:34N 51°55' E 004°15'6 5.3
2014-Sep-18 13:30N 51°53' E 004°24'0 0.0
2014-Sep-18 12:33N 51°53' E 004°24'0 0.0
2014-Sep-18 11:31N 51°53' E 004°24'0 0.0
2014-Sep-18 10:31N 51°53' E 004°24'0 0.0
2014-Sep-18 09:31N 51°53' E 004°24'0 0.0
2014-Sep-18 08:31N 51°53' E 004°24'0 0.0
2014-Sep-18 07:31N 51°53' E 004°24'0 0.0
2014-Sep-18 06:32N 51°53' E 004°24'0 0.0
2014-Sep-18 05:33N 51°53' E 004°24'0 0.0
2014-Sep-18 04:33N 51°53' E 004°24'0 0.0
2014-Sep-18 03:33N 51°53' E 004°24'0 0.0
2014-Sep-18 02:33N 51°53' E 004°24'0 0.0
2014-Sep-18 01:33N 51°53' E 004°24'0 0.0
2014-Sep-18 00:31N 51°53' E 004°24'0 0.0
2014-Sep-17 23:34N 51°53' E 004°24'0 0.0
2014-Sep-17 22:34N 51°53' E 004°24'0 0.0
2014-Sep-17 21:34N 51°53' E 004°24'0 0.0
2014-Sep-17 20:31N 51°53' E 004°24'0 0.0
2014-Sep-17 19:34N 51°53' E 004°24'0 0.0
2014-Sep-17 18:31N 51°53' E 004°24'0 0.0
2014-Sep-17 17:31N 51°53' E 004°24'0 0.0
2014-Sep-17 16:31N 51°53' E 004°24'0 0.0
2014-Sep-17 15:31N 51°53' E 004°24'0 0.0
2014-Sep-17 14:31N 51°53' E 004°24'0 0.0
2014-Sep-17 13:31N 51°53' E 004°24'1 0.6
2014-Sep-17 12:33N 51°53' E 004°24'6 6.0
2014-Sep-17 11:33N 51°55' E 004°15'1211.7
2014-Sep-17 10:34N 52°00' E 003°58'1211.5
2014-Sep-17 09:33N 51°58' E 003°39'10 9.8
2014-Sep-17 08:33N 51°55' E 003°24'1515.3
2014-Sep-17 07:33N 51°51' E 003°00'1818.1
2014-Sep-17 06:32N 51°43' E 002°33'1818.5
2014-Sep-17 05:32N 51°29' E 002°14'1717.6
2014-Sep-17 04:34N 51°17' E 001°55'1817.8
2014-Sep-17 03:34N 51°03' E 001°37'1717.3
2014-Sep-17 02:33N 50°47' E 001°26'1717.0
2014-Sep-17 01:33N 50°35' E 001°07'1817.8
2014-Sep-17 00:34N 50°28' E 000°41'2618.7
2014-Sep-16 23:10N 50°21' E 000°02'1118.2
2014-Sep-16 22:34N 50°18' W 000°15'1817.9
2014-Sep-16 21:34N 50°13' W 000°42'1717.3
2014-Sep-16 20:33N 50°09' W 001°08'1716.8
2014-Sep-16 19:33N 50°05' W 001°33'1616.2
2014-Sep-16 18:33N 49°60' W 001°57'1616.2
2014-Sep-16 17:34N 49°55' W 002°22'54018.3
2014-Sep-15 12:00N 47°54' W 015°42'45619.0 090 / 171009.510.8 1.519.617.518.9
2014-Sep-14 12:00N 45°18' W 026°06'11018.4 360 / 111005.910.8 0.5 17.5
2014-Sep-14 06:00N 44°36' W 028°30'17219.3 320 / 121008.210.8 1.017.216.618.2
2014-Sep-13 21:06N 43°20' W 032°04'1018.9
2014-Sep-13 20:33N 43°15' W 032°17'16018.7
2014-Sep-13 12:00N 41°54' W 035°24'21818.2 180 / 61018.510.8 0.522.515.521.5
2014-Sep-13 00:00N 40°00' W 039°30'69219.2 180 / 161020.210.8 2.023.019.823.1
2014-Sep-11 12:00N 33°12' W 051°06'12020.0 130 / 31022.010.8 0.528.023.226.3
2014-Sep-11 06:00N 31°54' W 052°54'   090 / 71020.910.8 30.022.427.9

Dump ship's entire track history